Time;durP1;ratioP1;P1;durP2;ratioP2;P2;SDS_P1;SDS_P2;PMS_P1;PMS_P2;Temp;Humidity;BMP_temperature;BMP_pressure;BME280_temperature;BME280_humidity;BME280_pressure;Samples;Min_cycle;Max_cycle;Signal;HPM_P1;HPM_P2
2022/02/08 00:01:22;;;;;;;451.90;150.87;;;;;;;3.26;100.00;99384.88;5011187;28;20353;-58
2022/02/08 00:03:48;;;;;;;454.70;149.97;;;;;;;3.19;100.00;99377.13;5010723;28;20057;-58
2022/02/08 00:08:54;;;;;;;449.87;148.40;;;;;;;3.14;100.00;99365.22;5013013;28;20079;-56
2022/02/08 00:11:20;;;;;;;452.03;148.77;;;;;;;3.11;100.00;99385.38;5013022;28;20387;-59
2022/02/08 00:13:46;;;;;;;452.57;150.20;;;;;;;3.08;100.00;99376.06;5009692;28;20030;-54
2022/02/08 00:16:11;;;;;;;450.57;148.47;;;;;;;3.04;100.00;99384.41;5009680;28;20221;-54
2022/02/08 00:18:37;;;;;;;452.20;149.67;;;;;;;3.01;100.00;99383.50;5009716;28;20115;-57
2022/02/08 00:21:02;;;;;;;451.37;150.37;;;;;;;3.03;100.00;99387.75;5009984;28;20307;-57
2022/02/08 00:23:27;;;;;;;452.30;150.47;;;;;;;3.00;100.00;99381.78;5009057;28;20026;-54
2022/02/08 00:25:53;;;;;;;450.47;149.57;;;;;;;3.13;100.00;99398.97;5010052;28;20136;-56
2022/02/08 00:28:18;;;;;;;454.20;151.10;;;;;;;3.10;100.00;99398.88;5012383;28;20045;-54
2022/02/08 00:30:44;;;;;;;450.97;150.93;;;;;;;3.13;100.00;99381.22;5012254;28;20498;-58
2022/02/08 00:33:09;;;;;;;455.37;154.60;;;;;;;3.13;100.00;99404.88;4989198;28;20037;-57
2022/02/08 00:35:35;;;;;;;453.37;150.90;;;;;;;3.09;100.00;99402.25;5006410;28;20029;-57
2022/02/08 00:38:00;;;;;;;451.97;150.30;;;;;;;3.06;100.00;99404.69;5009369;28;20120;-57
2022/02/08 00:40:27;;;;;;;451.83;149.63;;;;;;;3.11;100.00;99410.72;5010486;28;20480;-59
2022/02/08 00:42:52;;;;;;;449.90;149.83;;;;;;;3.15;100.00;99404.91;5008854;28;20364;-58
2022/02/08 00:45:34;;;;;;;451.13;148.97;;;;;;;3.20;100.00;99408.41;5008682;28;20029;-57
2022/02/08 00:48:15;;;;;;;452.93;150.63;;;;;;;3.19;100.00;99421.88;5011247;28;20041;-57
2022/02/08 00:50:48;;;;;;;449.00;147.93;;;;;;;3.18;100.00;99410.06;5012743;28;20415;-57
2022/02/08 00:53:14;;;;;;;449.17;147.93;;;;;;;3.18;100.00;99417.66;5011333;28;20034;-56
2022/02/08 00:55:39;;;;;;;450.97;148.80;;;;;;;3.22;100.00;99416.91;5008466;28;20352;-56
2022/02/08 00:58:04;;;;;;;448.67;146.60;;;;;;;3.14;100.00;99419.25;5010191;28;20034;-56
2022/02/08 01:00:30;;;;;;;451.67;149.03;;;;;;;3.04;100.00;99419.00;5009746;28;20554;-58
2022/02/08 01:02:58;;;;;;;450.80;149.67;;;;;;;2.98;100.00;99423.91;5006417;28;20040;-54
2022/02/08 01:05:23;;;;;;;450.03;146.93;;;;;;;3.00;100.00;99429.88;5011079;28;20033;-54
2022/02/08 01:07:49;;;;;;;450.43;149.57;;;;;;;2.98;100.00;99436.59;5009804;28;20029;-59
2022/02/08 01:10:18;;;;;;;450.53;146.10;;;;;;;2.88;100.00;99427.94;5008506;28;20038;-60
2022/02/08 01:12:43;;;;;;;451.17;147.63;;;;;;;2.91;100.00;99445.72;5006613;28;20033;-58
2022/02/08 01:15:09;;;;;;;454.00;145.50;;;;;;;2.96;100.00;99436.56;5014226;28;20514;-57
2022/02/08 01:17:35;;;;;;;452.97;148.57;;;;;;;2.92;100.00;99433.91;5012494;28;20069;-54
2022/02/08 01:22:26;;;;;;;453.07;146.27;;;;;;;2.87;100.00;99443.06;5006827;28;20128;-54
2022/02/08 01:24:52;;;;;;;450.70;145.90;;;;;;;2.83;100.00;99421.03;5010145;28;20029;-55
2022/02/08 01:27:23;;;;;;;451.17;145.00;;;;;;;2.86;100.00;99454.00;5009088;28;20093;-55
2022/02/08 01:37:27;;;;;;;448.27;141.40;;;;;;;2.76;100.00;99451.25;5010886;28;20539;-56
2022/02/08 01:40:17;;;;;;;446.87;142.47;;;;;;;2.79;100.00;99454.69;5007635;28;20033;-56
2022/02/08 01:50:27;;;;;;;447.27;141.30;;;;;;;2.68;100.00;99475.50;5007831;28;20048;-57
2022/02/08 01:52:53;;;;;;;445.97;139.67;;;;;;;2.67;100.00;99473.78;5008551;28;20683;-58
2022/02/08 01:55:18;;;;;;;446.87;141.67;;;;;;;2.73;100.00;99506.00;5008213;28;20025;-54
2022/02/08 01:57:45;;;;;;;448.83;141.57;;;;;;;2.76;100.00;99474.03;5011934;28;20034;-57
2022/02/08 02:00:13;;;;;;;447.47;141.57;;;;;;;2.78;100.00;99479.16;5009865;28;20037;-56
2022/02/08 02:02:39;;;;;;;447.30;142.30;;;;;;;2.82;100.00;99485.13;5012196;28;20109;-54
2022/02/08 02:05:05;;;;;;;448.13;143.33;;;;;;;2.83;100.00;99475.06;5011361;28;20086;-55
2022/02/08 02:07:32;;;;;;;448.17;143.17;;;;;;;2.82;100.00;99486.00;5009168;28;20026;-57
2022/02/08 02:09:57;;;;;;;446.50;140.30;;;;;;;2.79;100.00;99490.13;5009574;28;20589;-58
2022/02/08 02:12:23;;;;;;;446.30;142.37;;;;;;;2.76;100.00;99491.75;5014790;28;20029;-56
2022/02/08 02:14:48;;;;;;;445.00;139.57;;;;;;;2.80;100.00;99505.34;5011115;28;20026;-58
2022/02/08 02:17:14;;;;;;;447.50;141.67;;;;;;;2.84;100.00;99497.03;5009591;28;20036;-58
2022/02/08 02:19:40;;;;;;;448.80;145.50;;;;;;;2.78;100.00;99491.81;5005555;28;20124;-57
2022/02/08 02:22:07;;;;;;;446.43;140.93;;;;;;;2.87;100.00;99501.31;5011446;28;20141;-58
2022/02/08 02:24:36;;;;;;;447.20;142.77;;;;;;;2.88;100.00;99498.84;5012910;28;20026;-56
2022/02/08 02:27:04;;;;;;;448.30;143.43;;;;;;;2.87;100.00;99488.66;5013107;28;20507;-54
2022/02/08 02:29:30;;;;;;;449.10;143.10;;;;;;;2.87;100.00;99496.25;5010573;28;20666;-56
2022/02/08 02:31:57;;;;;;;448.43;143.40;;;;;;;2.87;100.00;99499.63;5014176;28;20026;-58
2022/02/08 02:34:23;;;;;;;448.57;142.90;;;;;;;2.91;100.00;99515.75;5015929;28;20034;-55
2022/02/08 02:36:49;;;;;;;447.90;145.30;;;;;;;2.96;100.00;99521.81;5014955;28;20276;-56
2022/02/08 02:39:15;;;;;;;449.90;144.70;;;;;;;2.98;100.00;99520.16;5012909;28;20694;-58
2022/02/08 02:41:42;;;;;;;448.30;142.13;;;;;;;2.93;100.00;99512.44;5016231;28;20025;-57
2022/02/08 02:44:10;;;;;;;449.73;146.70;;;;;;;2.96;100.00;99509.16;5016194;28;20085;-58
2022/02/08 02:46:36;;;;;;;450.13;145.23;;;;;;;2.97;100.00;99521.00;5010518;28;20268;-58
2022/02/08 02:49:03;;;;;;;447.93;144.93;;;;;;;2.97;100.00;99515.94;5010626;28;20058;-56
2022/02/08 02:51:29;;;;;;;450.17;145.97;;;;;;;2.97;100.00;99528.59;5011488;28;20490;-58
2022/02/08 02:53:55;;;;;;;448.37;143.97;;;;;;;2.96;100.00;99534.47;5016146;28;20030;-57
2022/02/08 02:56:21;;;;;;;447.63;143.50;;;;;;;2.96;100.00;99531.94;5011253;28;20095;-57
2022/02/08 02:58:47;;;;;;;449.43;143.87;;;;;;;2.98;100.00;99533.69;5009984;28;20026;-57
2022/02/08 03:19:58;;;;;;;450.80;145.73;;;;;;;2.86;100.00;99571.34;5012690;28;20053;-57
2022/02/08 03:22:24;;;;;;;453.80;150.47;;;;;;;2.87;100.00;99562.94;5011441;28;20026;-56
2022/02/08 03:24:49;;;;;;;450.03;145.63;;;;;;;2.90;100.00;99564.69;5009828;28;20494;-55
2022/02/08 03:27:15;;;;;;;447.63;144.20;;;;;;;2.88;100.00;99559.59;5011444;28;20076;-57
2022/02/08 03:29:42;;;;;;;448.20;144.30;;;;;;;2.78;100.00;99555.09;5013059;28;20033;-57
2022/02/08 03:32:08;;;;;;;449.13;145.77;;;;;;;2.81;100.00;99583.03;5011293;28;20502;-57
2022/02/08 03:34:33;;;;;;;449.87;143.67;;;;;;;2.78;100.00;99557.63;5008113;28;20265;-56
2022/02/08 03:36:59;;;;;;;448.67;143.47;;;;;;;2.75;100.00;99557.56;5008984;28;20387;-56
2022/02/08 03:39:34;;;;;;;449.17;144.83;;;;;;;2.79;100.00;99553.44;5011314;28;20030;-57
2022/02/08 03:42:08;;;;;;;450.63;145.53;;;;;;;2.74;100.00;99559.22;5010358;28;20472;-58
2022/02/08 03:44:34;;;;;;;448.97;142.43;;;;;;;2.80;100.00;99572.88;5010122;28;20033;-58
2022/02/08 03:47:05;;;;;;;450.37;140.30;;;;;;;2.86;100.00;99555.28;5011177;28;20045;-58
2022/02/08 03:49:30;;;;;;;447.40;138.83;;;;;;;2.89;100.00;99568.03;5012657;28;20297;-57
2022/02/08 03:52:00;;;;;;;446.27;138.70;;;;;;;2.89;100.00;99543.56;5009524;28;20068;-57
2022/02/08 03:54:26;;;;;;;447.73;139.30;;;;;;;2.86;100.00;99576.41;5008523;28;20662;-54
2022/02/08 03:56:51;;;;;;;447.63;140.53;;;;;;;2.97;100.00;99575.00;5011006;28;20755;-56
2022/02/08 03:59:17;;;;;;;449.17;143.77;;;;;;;2.93;100.00;99552.13;5011710;28;20026;-57
2022/02/08 04:02:05;;;;;;;451.03;143.30;;;;;;;2.85;100.00;99554.44;5010393;28;20029;-57
2022/02/08 04:04:35;;;;;;;446.50;139.00;;;;;;;2.88;100.00;99568.88;5008839;28;20037;-57
2022/02/08 04:07:08;;;;;;;449.60;142.87;;;;;;;2.93;100.00;99575.75;5010723;28;20411;-54
2022/02/08 04:09:33;;;;;;;448.67;141.50;;;;;;;2.99;100.00;99572.53;5011187;28;20275;-56
2022/02/08 04:12:03;;;;;;;447.93;140.80;;;;;;;2.95;100.00;99523.47;5007173;28;20524;-56
2022/02/08 04:18:40;;;;;;;446.73;141.47;;;;;;;2.85;100.00;99561.16;4997208;28;20536;-54
2022/02/08 04:36:57;;;;;;;448.87;141.77;;;;;;;2.89;100.00;99545.25;4997486;28;20296;-55
2022/02/08 04:42:05;;;;;;;447.77;146.27;;;;;;;2.88;100.00;99524.16;4995575;28;20049;-58
2022/02/08 04:45:01;;;;;;;452.90;141.23;;;;;;;2.88;100.00;99543.56;4998442;28;20026;-57
2022/02/08 04:47:24;;;;;;;449.97;145.03;;;;;;;2.90;100.00;99623.78;4994776;28;20042;-58
2022/02/08 04:49:53;;;;;;;446.43;141.07;;;;;;;2.92;100.00;99542.81;4994308;28;20563;-57
2022/02/08 04:52:19;;;;;;;448.20;142.67;;;;;;;2.92;100.00;99642.44;4995454;28;20684;-58
2022/02/08 04:54:54;;;;;;;398.52;124.05;;;;;;;2.93;100.00;99555.50;5005014;28;20299;-57
2022/02/08 05:45:12;;;;;;;401.77;119.93;;;;;;;2.88;100.00;99609.38;5008088;28;20501;-58
2022/02/08 05:47:41;;;;;;;;;;;;;;;2.81;100.00;99615.94;5007401;28;20512;-59
2022/02/08 05:50:24;;;;;;;400.67;116.97;;;;;;;2.74;100.00;99599.75;5009478;28;20398;-56
2022/02/08 05:53:04;;;;;;;401.77;126.27;;;;;;;2.77;100.00;99606.53;5004678;28;20277;-58
2022/02/08 05:55:31;;;;;;;414.50;154.35;;;;;;;2.73;100.00;99608.16;5010220;28;20279;-58
2022/02/08 05:57:57;;;;;;;397.92;124.90;;;;;;;2.66;100.00;99644.25;5014690;28;20125;-58
2022/02/08 06:00:27;;;;;;;395.70;124.13;;;;;;;2.62;100.00;99608.66;5013347;28;20041;-57
2022/02/08 06:03:01;;;;;;;398.95;128.30;;;;;;;2.67;100.00;99610.50;5015844;28;20342;-58
2022/02/08 06:05:27;;;;;;;270.25;85.25;;;;;;;2.71;100.00;99622.44;5018943;28;20037;-58
2022/02/08 06:07:52;;;;;;;368.90;129.07;;;;;;;2.64;100.00;99645.84;5016298;28;20127;-58
2022/02/08 06:10:18;;;;;;;366.63;116.57;;;;;;;2.67;100.00;99645.09;5014788;28;20057;-57
2022/02/08 06:12:53;;;;;;;121.20;42.87;;;;;;;2.68;100.00;99639.19;5018277;28;20142;-58
2022/02/08 06:15:21;;;;;;;307.05;99.15;;;;;;;2.71;100.00;99645.22;5018839;28;20092;-59
2022/02/08 06:17:48;;;;;;;28.37;12.87;;;;;;;2.63;100.00;99650.88;4997233;28;20656;-57
2022/02/08 06:20:14;;;;;;;2.73;1.50;;;;;;;2.71;100.00;99645.22;5015601;28;20044;-58
2022/02/08 06:22:41;;;;;;;412.73;136.80;;;;;;;2.78;100.00;99653.84;5014042;28;20030;-57
2022/02/08 06:25:10;;;;;;;410.02;137.60;;;;;;;2.69;100.00;99648.50;5017397;28;20041;-57
2022/02/08 06:27:35;;;;;;;411.83;137.98;;;;;;;2.67;100.00;99634.97;5016520;28;20108;-59
2022/02/08 06:30:01;;;;;;;414.87;143.60;;;;;;;2.68;100.00;99642.59;5013741;28;20097;-59
2022/02/08 06:32:28;;;;;;;414.03;141.17;;;;;;;2.67;100.00;99640.88;5016724;28;20044;-57
2022/02/08 06:34:56;;;;;;;415.08;142.27;;;;;;;2.71;100.00;99645.22;5015898;28;20030;-59
2022/02/08 06:37:23;;;;;;;419.08;146.27;;;;;;;2.76;100.00;99668.97;5013889;28;20125;-56
2022/02/08 06:39:49;;;;;;;399.88;134.15;;;;;;;2.74;100.00;99655.44;5016727;28;20192;-59
2022/02/08 06:42:14;;;;;;;413.87;140.40;;;;;;;2.81;100.00;99648.00;5016802;28;20644;-58
2022/02/08 06:44:40;;;;;;;412.00;141.53;;;;;;;2.78;100.00;99631.06;5015973;28;20045;-58
2022/02/08 06:47:06;;;;;;;421.87;146.43;;;;;;;2.90;100.00;99650.78;5015741;28;20571;-56
2022/02/08 06:49:31;;;;;;;8.37;2.23;;;;;;;2.90;100.00;99656.72;5011981;28;20046;-58
2022/02/08 06:51:56;;;;;;;398.97;126.47;;;;;;;2.97;100.00;99660.28;5014699;28;20034;-55
2022/02/08 06:54:22;;;;;;;393.13;122.03;;;;;;;2.92;100.00;99674.50;5015671;28;20120;-56
2022/02/08 06:56:48;;;;;;;395.53;124.80;;;;;;;3.01;100.00;99674.75;5013638;28;20105;-55
2022/02/08 06:59:16;;;;;;;396.13;122.17;;;;;;;3.07;100.00;99662.25;5013597;28;20034;-58
2022/02/08 07:01:43;;;;;;;394.98;121.65;;;;;;;3.11;100.00;99687.69;5013741;28;20480;-57
2022/02/08 07:04:14;;;;;;;294.80;87.20;;;;;;;3.16;100.00;99645.63;5017393;28;20046;-56
2022/02/08 07:06:39;;;;;;;395.55;119.32;;;;;;;3.22;100.00;99665.22;5014100;28;20705;-59
2022/02/08 07:09:05;;;;;;;394.60;119.20;;;;;;;3.24;100.00;99691.44;5010431;28;20053;-57
2022/02/08 07:11:30;;;;;;;394.17;118.23;;;;;;;3.19;100.00;99663.44;5009128;28;20044;-58
2022/02/08 07:13:58;;;;;;;395.77;119.23;;;;;;;3.26;100.00;99710.06;5010960;28;20030;-58
2022/02/08 07:16:23;;;;;;;401.05;118.88;;;;;;;3.29;100.00;99672.16;5013314;28;20121;-55
2022/02/08 07:18:48;;;;;;;398.17;122.37;;;;;;;3.34;100.00;99685.81;5011226;28;20150;-57
2022/02/08 07:21:14;;;;;;;400.83;123.00;;;;;;;3.43;99.12;99678.44;5014182;28;20025;-56
2022/02/08 07:23:39;;;;;;;398.70;120.27;;;;;;;3.52;97.21;99686.25;5012264;28;20209;-57
2022/02/08 07:26:05;;;;;;;403.57;124.93;;;;;;;3.61;96.72;99693.25;5009884;28;20029;-55
2022/02/08 07:28:37;;;;;;;401.47;126.43;;;;;;;3.67;95.46;99681.59;5008994;28;20356;-55
2022/02/08 07:31:11;;;;;;;400.73;124.45;;;;;;;3.79;95.54;99672.56;5017968;28;20550;-57
2022/02/08 07:33:39;;;;;;;400.77;124.07;;;;;;;3.91;94.59;99694.00;5012991;28;20124;-55
2022/02/08 07:36:18;;;;;;;411.10;134.10;;;;;;;3.98;93.29;99688.28;5009144;28;20555;-57
2022/02/08 07:38:43;;;;;;;401.80;125.93;;;;;;;4.14;93.32;99692.03;5011843;28;20117;-57
2022/02/08 07:43:34;;;;;;;402.07;128.80;;;;;;;4.26;90.78;99673.69;5010877;28;20030;-54
2022/02/08 07:46:00;;;;;;;406.10;132.30;;;;;;;4.32;90.62;99689.06;5010538;28;20446;-58
2022/02/08 07:48:27;;;;;;;412.97;143.37;;;;;;;4.41;89.71;99694.38;5009464;28;20053;-56
2022/02/08 07:50:53;;;;;;;410.35;135.50;;;;;;;4.46;89.87;99674.97;5016070;28;20070;-55
2022/02/08 07:53:20;;;;;;;408.77;137.77;;;;;;;4.55;87.69;99688.75;5010562;28;20494;-55
2022/02/08 07:55:46;;;;;;;412.45;141.15;;;;;;;4.72;87.87;99689.09;5008507;28;20380;-58
2022/02/08 07:58:11;;;;;;;411.87;139.47;;;;;;;4.90;83.25;99696.25;5012640;28;20574;-59
2022/02/08 08:00:37;;;;;;;411.60;143.80;;;;;;;5.13;78.09;99694.19;5012200;28;20573;-58
2022/02/08 08:03:06;;;;;;;413.97;141.47;;;;;;;5.28;78.44;99702.97;5010619;28;20474;-57
2022/02/08 08:05:32;;;;;;;417.52;153.25;;;;;;;5.31;72.07;99697.94;5008691;28;20029;-57
2022/02/08 08:07:58;;;;;;;415.87;147.37;;;;;;;5.55;69.82;99709.41;5010986;28;20049;-56
2022/02/08 08:10:29;;;;;;;414.37;148.80;;;;;;;5.71;65.39;99675.75;5013664;28;20260;-58
2022/02/08 08:12:55;;;;;;;417.27;157.20;;;;;;;5.91;65.98;99689.72;5011247;28;20314;-58
2022/02/08 08:21:02;;;;;;;420.30;160.07;;;;;;;5.95;65.32;99673.66;4981632;28;20265;-58
2022/02/08 08:23:28;;;;;;;421.67;161.23;;;;;;;5.80;63.88;99684.41;5008607;28;20268;-57
2022/02/08 08:25:53;;;;;;;419.77;160.93;;;;;;;5.58;63.41;99672.16;5012290;28;20052;-59
2022/02/08 08:28:19;;;;;;;419.93;155.07;;;;;;;5.32;64.38;99678.44;5016253;28;20482;-58
2022/02/08 08:30:45;;;;;;;420.03;159.20;;;;;;;5.27;67.52;99680.03;5012587;28;20026;-58
2022/02/08 08:33:10;;;;;;;418.27;151.30;;;;;;;5.23;64.78;99681.69;5009049;28;20053;-61
2022/02/08 08:35:37;;;;;;;421.20;156.30;;;;;;;5.29;63.17;99694.50;5010278;28;20515;-60
2022/02/08 08:38:05;;;;;;;420.87;158.93;;;;;;;5.20;63.79;99674.00;5012700;28;20310;-60
2022/02/08 08:51:24;;;;;;;415.83;143.77;;;;;;;5.05;60.00;99694.00;5009783;28;20643;-59
2022/02/08 08:53:50;;;;;;;415.70;146.43;;;;;;;5.11;58.74;99653.50;5010417;28;20367;-57
2022/02/08 08:56:16;;;;;;;413.90;143.33;;;;;;;5.20;55.73;99651.13;5009857;28;20152;-58
2022/02/08 08:58:44;;;;;;;422.02;154.70;;;;;;;5.33;53.84;99663.22;5009605;28;20623;-56
2022/02/08 09:01:12;;;;;;;420.20;157.95;;;;;;;5.41;54.58;99666.78;5009211;28;20034;-60
2022/02/08 09:03:39;;;;;;;421.38;158.40;;;;;;;5.36;55.03;99653.13;5009947;28;20761;-59
2022/02/08 09:06:05;;;;;;;422.40;158.98;;;;;;;5.46;52.18;99671.94;5010286;28;20036;-59
2022/02/08 09:08:33;;;;;;;418.20;154.98;;;;;;;5.39;53.34;99626.88;5008390;28;20342;-60
2022/02/08 09:11:09;;;;;;;419.60;152.52;;;;;;;5.48;53.54;99650.78;5007405;28;20630;-58
2022/02/08 09:13:48;;;;;;;424.75;160.93;;;;;;;5.42;56.40;99681.22;5011641;28;20081;-59
2022/02/08 09:16:53;;;;;;;421.20;155.32;;;;;;;5.36;57.21;99657.34;5011267;28;20042;-59
2022/02/08 09:19:35;;;;;;;421.05;157.85;;;;;;;5.27;59.30;99644.44;5005750;28;20045;-58
2022/02/08 09:27:33;;;;;;;423.67;157.88;;;;;;;5.30;61.49;99669.97;5010631;28;20804;-58
2022/02/08 09:30:00;;;;;;;421.20;157.27;;;;;;;5.33;65.17;99681.03;5005867;28;20033;-60
2022/02/08 09:32:41;;;;;;;418.23;159.00;;;;;;;5.57;65.18;99677.19;5013296;28;20025;-57
2022/02/08 09:35:08;;;;;;;420.15;156.32;;;;;;;5.89;64.79;99701.56;5008387;28;20033;-59
2022/02/08 09:37:34;;;;;;;425.50;166.38;;;;;;;6.15;64.24;99689.25;5008559;28;20176;-59
2022/02/08 09:40:00;;;;;;;426.40;164.23;;;;;;;6.40;61.13;99688.78;5010581;28;20224;-59
2022/02/08 09:42:25;;;;;;;427.63;176.37;;;;;;;6.60;59.08;99696.72;5010183;28;20264;-60
2022/02/08 09:44:53;;;;;;;430.43;180.63;;;;;;;6.64;58.81;99701.88;5008628;28;20494;-58
2022/02/08 09:47:21;;;;;;;430.43;181.30;;;;;;;6.50;59.02;99711.00;5010431;28;20455;-54
2022/02/08 09:49:55;;;;;;;431.20;178.33;;;;;;;6.46;59.38;99695.66;4992551;28;20277;-58
2022/02/08 09:52:21;;;;;;;430.40;182.63;;;;;;;6.52;61.24;99670.28;4995813;28;20279;-58
2022/02/08 09:54:47;;;;;;;433.87;193.03;;;;;;;6.47;58.47;99688.03;5007766;28;20654;-56
2022/02/08 09:57:14;;;;;;;432.70;185.70;;;;;;;6.41;58.65;99680.28;5010063;28;20270;-56
2022/02/08 09:59:41;;;;;;;426.53;176.57;;;;;;;6.41;59.49;99703.22;5009161;28;20026;-58
2022/02/08 10:02:08;;;;;;;428.93;182.00;;;;;;;6.21;59.31;99672.38;5006264;28;20319;-56
2022/02/08 10:04:36;;;;;;;427.93;178.67;;;;;;;6.14;61.06;99674.81;4997688;28;20288;-60
2022/02/08 10:07:12;;;;;;;430.63;180.53;;;;;;;6.20;60.64;99670.66;5008187;28;20287;-59
2022/02/08 10:09:38;;;;;;;428.00;178.03;;;;;;;6.30;58.38;99675.06;5009556;28;21094;-59
2022/02/08 10:12:04;;;;;;;428.93;175.30;;;;;;;6.37;58.22;99671.75;5010528;28;20269;-60
2022/02/08 10:22:34;;;;;;;431.60;184.30;;;;;;;6.47;56.24;99687.19;5010242;28;20371;-56
2022/02/08 10:25:03;;;;;;;429.30;183.77;;;;;;;6.37;57.05;99679.41;5011240;28;20275;-58
2022/02/08 10:27:38;;;;;;;429.53;180.43;;;;;;;6.34;58.13;99696.34;5009027;28;20383;-59
2022/02/08 10:30:30;;;;;;;310.70;132.85;;;;;;;6.35;59.99;99676.00;5009714;28;20318;-58
2022/02/08 10:38:24;;;;;;;429.67;178.77;;;;;;;6.29;63.36;99690.31;5010748;28;20271;-58
2022/02/08 10:40:50;;;;;;;429.47;176.47;;;;;;;6.41;64.33;99673.50;5008217;28;20268;-60
2022/02/08 10:43:16;;;;;;;428.90;182.70;;;;;;;6.47;61.70;99680.41;5010612;28;20034;-59
2022/02/08 10:45:43;;;;;;;428.07;179.50;;;;;;;6.49;61.16;99690.63;5011189;28;20312;-60
2022/02/08 10:48:22;;;;;;;433.20;183.33;;;;;;;6.63;59.58;99659.38;4993866;28;20100;-60
2022/02/08 10:50:53;;;;;;;429.47;184.33;;;;;;;6.81;58.76;99654.53;5015797;28;21268;-59
2022/02/08 10:53:21;;;;;;;435.07;191.90;;;;;;;7.03;58.89;99658.19;5015290;28;20268;-60
2022/02/08 10:55:59;;;;;;;439.13;200.93;;;;;;;7.15;58.53;99688.06;5010000;28;20438;-59
2022/02/08 11:03:29;;;;;;;433.67;199.30;;;;;;;6.73;61.02;99647.63;5014063;28;20269;-57
2022/02/08 11:08:45;;;;;;;436.07;193.07;;;;;;;6.52;63.39;99672.81;5012379;28;20300;-59
2022/02/08 11:16:29;;;;;;;431.53;182.07;;;;;;;6.36;63.53;99626.78;5012373;28;20554;-59
2022/02/08 11:19:20;;;;;;;430.33;179.23;;;;;;;6.40;65.46;99628.53;5014289;28;20793;-60
2022/02/08 11:21:54;;;;;;;430.27;179.23;;;;;;;6.37;65.33;99615.72;5015169;28;20265;-60
2022/02/08 11:27:16;;;;;;;431.98;178.07;;;;;;;6.42;68.30;99590.31;4997711;28;20609;-59
2022/02/08 11:30:07;;;;;;;430.43;182.73;;;;;;;6.63;69.03;99587.19;5016193;28;20041;-60
2022/02/08 11:33:28;;;;;;;431.67;187.00;;;;;;;6.71;68.36;99603.41;5010732;28;20327;-60
2022/02/08 11:46:49;;;;;;;432.40;186.98;;;;;;;7.34;62.96;99593.91;4988400;28;19909;-58
2022/02/08 11:49:32;;;;;;;436.60;199.80;;;;;;;7.62;60.77;99581.41;5016647;28;20137;-58
2022/02/08 12:00:45;;;;;;;445.03;227.53;;;;;;;7.90;60.47;99597.75;5015552;28;20088;-60
2022/02/08 12:03:44;;;;;;;441.30;219.63;;;;;;;7.69;61.43;99590.81;5012741;28;20272;-59
2022/02/08 12:08:53;;;;;;;443.20;221.13;;;;;;;7.58;64.02;99611.16;5016019;28;20419;-61
2022/02/08 12:11:42;;;;;;;447.17;230.70;;;;;;;7.56;64.03;99602.59;5013938;28;20303;-60
2022/02/08 12:33:31;;;;;;;441.97;214.97;;;;;;;7.45;61.98;99600.81;5011210;28;20252;-60
2022/02/08 12:57:57;;;;;;;447.67;240.03;;;;;;;8.34;54.83;99552.97;5008604;28;20072;-58
2022/02/08 13:03:23;;;;;;;446.90;244.17;;;;;;;8.47;53.88;99547.06;5008069;28;20260;-59
2022/02/08 13:06:38;;;;;;;446.87;241.00;;;;;;;8.41;53.95;99548.72;5009793;28;20294;-60
2022/02/08 14:08:53;;;;;;;468.87;261.33;;;;;;;8.76;50.06;99516.47;5006199;28;20053;-57
2022/02/08 14:18:45;;;;;;;465.40;259.17;;;;;;;8.88;49.94;99513.94;5006743;28;20124;-58
2022/02/08 14:31:52;;;;;;;473.10;276.07;;;;;;;8.87;50.83;99552.31;5013067;28;20028;-58
2022/02/08 15:08:53;;;;;;;464.90;264.37;;;;;;;8.85;52.84;99542.06;4940039;29;20536;-64
2022/02/08 15:11:18;;;;;;;463.40;257.30;;;;;;;8.86;53.56;99548.03;4923635;29;20035;-60
2022/02/08 15:13:47;;;;;;;464.90;259.83;;;;;;;8.77;53.95;99553.97;4938848;29;20032;-58
2022/02/08 15:18:40;;;;;;;464.90;261.37;;;;;;;8.86;53.97;99535.25;4940321;29;20488;-57
2022/02/08 15:21:10;;;;;;;465.10;268.40;;;;;;;8.80;53.96;99556.53;4951152;28;20045;-61
2022/02/08 15:23:36;;;;;;;464.07;259.90;;;;;;;8.72;54.63;99542.88;5010277;28;20498;-57
2022/02/08 15:26:01;;;;;;;462.83;259.63;;;;;;;8.78;54.59;99549.72;5012359;28;20034;-60
2022/02/08 15:28:28;;;;;;;461.53;256.07;;;;;;;8.65;53.83;99533.50;5011962;28;20041;-59
2022/02/08 15:30:55;;;;;;;464.03;257.27;;;;;;;8.62;54.22;99546.25;5008628;28;20073;-60
2022/02/08 15:33:21;;;;;;;462.33;255.63;;;;;;;8.56;54.02;99559.03;5010931;28;20033;-60
2022/02/08 15:35:47;;;;;;;463.83;256.53;;;;;;;8.63;54.10;99561.59;5011894;28;20583;-58
2022/02/08 15:38:12;;;;;;;462.20;255.83;;;;;;;8.57;53.85;99563.28;5011463;28;20052;-60
2022/02/08 15:40:38;;;;;;;460.40;252.53;;;;;;;8.54;54.15;99556.44;5010214;28;20037;-59
2022/02/08 15:43:03;;;;;;;463.13;259.80;;;;;;;8.48;54.08;99553.88;5014244;28;20373;-60
2022/02/08 15:45:55;;;;;;;466.03;262.50;;;;;;;8.51;54.85;99571.78;5013896;28;20105;-60
2022/02/08 15:48:20;;;;;;;464.03;257.97;;;;;;;8.47;54.29;99567.50;5010576;28;20049;-61
2022/02/08 15:50:54;;;;;;;464.73;255.90;;;;;;;8.32;55.49;99569.97;5009334;28;20507;-59
2022/02/08 15:56:39;;;;;;;462.10;246.47;;;;;;;8.19;56.94;99573.25;4940844;29;20118;-57
2022/02/08 16:09:41;;;;;;;460.23;235.30;;;;;;;7.77;60.70;99550.88;4938666;29;20514;-59
2022/02/08 16:12:26;;;;;;;463.07;234.27;;;;;;;7.72;60.13;99555.13;4944047;29;20113;-56
2022/02/08 16:33:08;;;;;;;458.17;227.20;;;;;;;7.50;69.63;99528.59;5011992;28;20153;-58
2022/02/08 16:55:17;;;;;;;456.17;217.60;;;;;;;7.57;71.62;99519.25;4981264;28;20186;-59
2022/02/08 17:00:31;;;;;;;;;;;;;;;7.52;72.52;99533.69;4963806;28;20038;-58
2022/02/08 17:03:02;;;;;;;457.40;216.17;;;;;;;7.48;72.73;99542.16;4981806;28;19928;-61
2022/02/08 17:05:28;;;;;;;456.33;219.77;;;;;;;7.50;71.52;99528.59;4979315;28;20035;-60
2022/02/08 17:07:54;;;;;;;455.40;215.93;;;;;;;7.52;71.95;99531.97;4979420;28;20030;-60
2022/02/08 17:10:34;;;;;;;456.87;219.50;;;;;;;7.51;71.02;99517.50;4983340;28;20042;-59
2022/02/08 17:13:16;;;;;;;456.53;222.93;;;;;;;7.51;71.69;99539.66;4981244;28;20189;-59
2022/02/08 17:15:56;;;;;;;460.00;226.03;;;;;;;7.53;70.74;99523.50;4977356;28;20078;-59
2022/02/08 17:18:57;;;;;;;455.77;215.87;;;;;;;7.45;72.56;99516.63;4981454;28;20026;-60
2022/02/08 17:45:57;;;;;;;461.47;228.07;;;;;;;7.68;75.66;99492.97;4954006;28;20082;-59
2022/02/08 17:48:23;;;;;;;464.40;236.70;;;;;;;7.63;75.54;99491.25;4955343;28;20512;-61
2022/02/08 17:50:48;;;;;;;465.07;244.40;;;;;;;7.59;76.30;99499.72;4954801;28;20039;-60
2022/02/08 17:53:15;;;;;;;462.60;235.27;;;;;;;7.69;76.30;99497.22;4957235;28;20035;-59
2022/02/08 17:55:40;;;;;;;463.63;239.23;;;;;;;7.77;76.42;99504.94;4957179;28;20046;-60
2022/02/08 17:58:06;;;;;;;463.03;238.63;;;;;;;7.81;75.87;99512.63;4956974;28;20035;-59
2022/02/08 18:00:33;;;;;;;458.93;231.57;;;;;;;7.87;74.43;99493.94;4953406;28;20050;-60
2022/02/08 18:03:05;;;;;;;462.53;234.47;;;;;;;7.91;75.31;99498.22;4951849;28;20047;-59
2022/02/08 18:05:31;;;;;;;461.80;230.13;;;;;;;7.91;74.88;99492.25;4955348;28;20035;-62
2022/02/08 18:07:57;;;;;;;465.10;241.97;;;;;;;7.93;73.71;99498.25;4954925;28;20031;-61
2022/02/08 18:10:24;;;;;;;463.53;242.80;;;;;;;7.95;72.54;99484.63;4951943;28;20147;-60
2022/02/08 18:12:55;;;;;;;463.90;238.57;;;;;;;7.98;71.79;99492.28;4953028;28;20031;-59
2022/02/08 18:15:22;;;;;;;463.50;238.20;;;;;;;8.03;71.25;99507.63;4952224;28;20102;-59
2022/02/08 18:17:54;;;;;;;460.80;234.17;;;;;;;8.02;72.35;99508.50;4951317;28;20190;-61
2022/02/08 19:03:27;;;;;;;464.40;245.93;;;;;;;8.27;75.56;99489.88;5007193;28;20045;-59